Enter the Airport ICAO Code

Search by Airport or City

Current Weather

SCIE | Carriel Sur International Airport

Concepción, Chile

Last Update 9 Minutes Ago

Clear Sky

Temperature of 17 ºC

Moderate to Strong Winds from SouthWest with Gusts

Temperature

17 ºC

Dew Point Temperature

10 ºC

Relative Humidity

63.54 %

Wind Direction

SouthWest (220º, Without Significant Variations)

Wind Velocity

30 km/h (16 kt)

Gusts

50 km/h (27 kt)

Visibility

No Significant Reductions

Sea Level Pressure

1018 hPa (Hectopascals)

Layers of Clouds

None

METAR SCIE 022303Z 22016G27KT CAVOK 17/10 Q1018

Weather Forecast

SCIE | Carriel Sur International Airport

Concepción, Chile

Forecast valid for the next 25 Hours

In 1 hour it is expected the begining of:

Clear Sky

Moderate Winds from SouthWest

In 7 hours it is expected the begining of 6 hours with intermittent periods of:

Light Winds from SouthEast

In 16 to 18 hours it is expected the begining of:

Moderate to Strong Winds from SouthWest

Maximum Temperature

19 ºC in 19 Hours

Minimum Temperature

09 ºC in 11 Hours

TAF SCIE 022222Z 0300/0324 24015KT CAVOK TX19/0318Z TN09/0310Z BECMG 0302/0303 22010KT TEMPO 0306/0312 15004KT BECMG 0315/0317 24017KT